sensor_id;sensor_type;location;lat;lon;timestamp;P1;durP1;ratioP1;P2;durP2;ratioP2
47866;SDS011;33628;50.806;11.586;2022-07-23T00:00:43;11.32;;;5.05;;
47866;SDS011;33628;50.806;11.586;2022-07-23T00:03:10;10.27;;;5.57;;
47866;SDS011;33628;50.806;11.586;2022-07-23T00:05:36;7.65;;;5.25;;
47866;SDS011;33628;50.806;11.586;2022-07-23T00:08:02;8.43;;;5.97;;
47866;SDS011;33628;50.806;11.586;2022-07-23T00:10:28;11.70;;;5.43;;
47866;SDS011;33628;50.806;11.586;2022-07-23T00:12:54;8.30;;;6.18;;
47866;SDS011;33628;50.806;11.586;2022-07-23T00:15:20;8.23;;;6.00;;
47866;SDS011;33628;50.806;11.586;2022-07-23T00:17:48;8.52;;;6.82;;
47866;SDS011;33628;50.806;11.586;2022-07-23T00:20:14;10.18;;;6.00;;
47866;SDS011;33628;50.806;11.586;2022-07-23T00:22:45;10.43;;;6.47;;
47866;SDS011;33628;50.806;11.586;2022-07-23T00:25:12;11.00;;;6.93;;
47866;SDS011;33628;50.806;11.586;2022-07-23T00:27:38;11.65;;;6.43;;
47866;SDS011;33628;50.806;11.586;2022-07-23T00:30:05;11.85;;;6.90;;
47866;SDS011;33628;50.806;11.586;2022-07-23T00:32:31;7.00;;;6.28;;
47866;SDS011;33628;50.806;11.586;2022-07-23T00:34:59;7.50;;;6.80;;
47866;SDS011;33628;50.806;11.586;2022-07-23T00:37:26;10.93;;;6.70;;
47866;SDS011;33628;50.806;11.586;2022-07-23T00:39:52;9.93;;;6.55;;
47866;SDS011;33628;50.806;11.586;2022-07-23T00:42:18;8.63;;;6.22;;
47866;SDS011;33628;50.806;11.586;2022-07-23T00:44:44;8.52;;;6.38;;
47866;SDS011;33628;50.806;11.586;2022-07-23T00:47:12;7.40;;;5.88;;
47866;SDS011;33628;50.806;11.586;2022-07-23T00:49:39;7.97;;;7.15;;
47866;SDS011;33628;50.806;11.586;2022-07-23T00:52:07;8.52;;;6.80;;
47866;SDS011;33628;50.806;11.586;2022-07-23T00:54:34;7.50;;;6.25;;
47866;SDS011;33628;50.806;11.586;2022-07-23T00:57:02;8.07;;;6.22;;
47866;SDS011;33628;50.806;11.586;2022-07-23T00:59:29;9.93;;;6.40;;
47866;SDS011;33628;50.806;11.586;2022-07-23T01:01:56;11.38;;;6.05;;
47866;SDS011;33628;50.806;11.586;2022-07-23T01:04:23;13.63;;;6.85;;
47866;SDS011;33628;50.806;11.586;2022-07-23T01:06:49;12.82;;;6.47;;
47866;SDS011;33628;50.806;11.586;2022-07-23T01:09:18;10.05;;;6.22;;
47866;SDS011;33628;50.806;11.586;2022-07-23T01:11:47;13.95;;;6.88;;
47866;SDS011;33628;50.806;11.586;2022-07-23T01:14:14;7.60;;;6.53;;
47866;SDS011;33628;50.806;11.586;2022-07-23T01:16:41;10.23;;;6.85;;
47866;SDS011;33628;50.806;11.586;2022-07-23T01:19:08;12.23;;;6.28;;
47866;SDS011;33628;50.806;11.586;2022-07-23T01:21:35;9.93;;;6.60;;
47866;SDS011;33628;50.806;11.586;2022-07-23T01:24:04;9.07;;;6.25;;
47866;SDS011;33628;50.806;11.586;2022-07-23T01:26:33;10.93;;;7.13;;
47866;SDS011;33628;50.806;11.586;2022-07-23T01:29:00;10.23;;;6.78;;
47866;SDS011;33628;50.806;11.586;2022-07-23T01:31:26;10.45;;;6.70;;
47866;SDS011;33628;50.806;11.586;2022-07-23T01:33:52;11.30;;;6.95;;
47866;SDS011;33628;50.806;11.586;2022-07-23T01:36:19;10.10;;;6.80;;
47866;SDS011;33628;50.806;11.586;2022-07-23T01:38:45;8.77;;;6.30;;
47866;SDS011;33628;50.806;11.586;2022-07-23T01:41:13;11.02;;;7.28;;
47866;SDS011;33628;50.806;11.586;2022-07-23T01:43:39;9.10;;;7.05;;
47866;SDS011;33628;50.806;11.586;2022-07-23T01:46:06;12.52;;;6.97;;
47866;SDS011;33628;50.806;11.586;2022-07-23T01:48:38;14.70;;;7.10;;
47866;SDS011;33628;50.806;11.586;2022-07-23T01:51:36;9.35;;;7.03;;
47866;SDS011;33628;50.806;11.586;2022-07-23T01:54:23;9.88;;;7.13;;
47866;SDS011;33628;50.806;11.586;2022-07-23T01:56:51;9.30;;;7.28;;
47866;SDS011;33628;50.806;11.586;2022-07-23T01:59:17;12.32;;;7.63;;
47866;SDS011;33628;50.806;11.586;2022-07-23T02:01:43;10.13;;;6.50;;
47866;SDS011;33628;50.806;11.586;2022-07-23T02:04:09;9.88;;;6.78;;
47866;SDS011;33628;50.806;11.586;2022-07-23T02:06:35;14.70;;;7.05;;
47866;SDS011;33628;50.806;11.586;2022-07-23T02:09:02;10.25;;;7.82;;
47866;SDS011;33628;50.806;11.586;2022-07-23T02:11:28;12.55;;;7.57;;
47866;SDS011;33628;50.806;11.586;2022-07-23T02:13:56;10.63;;;7.28;;
47866;SDS011;33628;50.806;11.586;2022-07-23T02:16:22;8.77;;;7.63;;
47866;SDS011;33628;50.806;11.586;2022-07-23T02:18:49;9.02;;;7.32;;
47866;SDS011;33628;50.806;11.586;2022-07-23T02:21:15;9.73;;;6.70;;
47866;SDS011;33628;50.806;11.586;2022-07-23T02:23:41;8.65;;;6.97;;
47866;SDS011;33628;50.806;11.586;2022-07-23T02:26:08;8.13;;;6.47;;
47866;SDS011;33628;50.806;11.586;2022-07-23T02:28:35;8.93;;;7.05;;
47866;SDS011;33628;50.806;11.586;2022-07-23T02:31:03;7.68;;;6.32;;
47866;SDS011;33628;50.806;11.586;2022-07-23T02:33:29;10.35;;;7.20;;
47866;SDS011;33628;50.806;11.586;2022-07-23T02:35:56;9.50;;;7.30;;
47866;SDS011;33628;50.806;11.586;2022-07-23T02:38:22;13.88;;;6.45;;
47866;SDS011;33628;50.806;11.586;2022-07-23T02:40:49;11.10;;;6.63;;
47866;SDS011;33628;50.806;11.586;2022-07-23T02:43:17;9.13;;;6.78;;
47866;SDS011;33628;50.806;11.586;2022-07-23T02:45:45;8.85;;;6.20;;
47866;SDS011;33628;50.806;11.586;2022-07-23T02:48:12;10.60;;;6.38;;
47866;SDS011;33628;50.806;11.586;2022-07-23T02:50:42;8.38;;;6.47;;
47866;SDS011;33628;50.806;11.586;2022-07-23T02:53:11;12.65;;;6.13;;
47866;SDS011;33628;50.806;11.586;2022-07-23T02:55:38;9.98;;;6.68;;
47866;SDS011;33628;50.806;11.586;2022-07-23T02:58:05;8.50;;;6.38;;
47866;SDS011;33628;50.806;11.586;2022-07-23T03:00:31;13.05;;;7.47;;
47866;SDS011;33628;50.806;11.586;2022-07-23T03:02:58;9.68;;;7.30;;
47866;SDS011;33628;50.806;11.586;2022-07-23T03:05:26;9.63;;;6.75;;
47866;SDS011;33628;50.806;11.586;2022-07-23T03:07:53;10.98;;;6.85;;
47866;SDS011;33628;50.806;11.586;2022-07-23T03:10:19;9.23;;;6.90;;
47866;SDS011;33628;50.806;11.586;2022-07-23T03:12:45;10.25;;;6.50;;
47866;SDS011;33628;50.806;11.586;2022-07-23T03:15:12;11.82;;;7.22;;
47866;SDS011;33628;50.806;11.586;2022-07-23T03:17:39;8.88;;;6.50;;
47866;SDS011;33628;50.806;11.586;2022-07-23T03:20:06;10.65;;;7.15;;
47866;SDS011;33628;50.806;11.586;2022-07-23T03:22:34;9.00;;;6.80;;
47866;SDS011;33628;50.806;11.586;2022-07-23T03:25:03;10.88;;;6.78;;
47866;SDS011;33628;50.806;11.586;2022-07-23T03:27:33;10.55;;;7.20;;
47866;SDS011;33628;50.806;11.586;2022-07-23T03:30:00;13.85;;;7.20;;
47866;SDS011;33628;50.806;11.586;2022-07-23T03:32:26;12.38;;;8.25;;
47866;SDS011;33628;50.806;11.586;2022-07-23T03:34:53;19.02;;;8.57;;
47866;SDS011;33628;50.806;11.586;2022-07-23T03:37:20;12.50;;;8.68;;
47866;SDS011;33628;50.806;11.586;2022-07-23T03:39:48;10.85;;;9.70;;
47866;SDS011;33628;50.806;11.586;2022-07-23T03:42:15;19.23;;;9.80;;
47866;SDS011;33628;50.806;11.586;2022-07-23T03:44:44;12.85;;;9.00;;
47866;SDS011;33628;50.806;11.586;2022-07-23T03:47:11;11.93;;;9.82;;
47866;SDS011;33628;50.806;11.586;2022-07-23T03:49:37;16.83;;;9.77;;
47866;SDS011;33628;50.806;11.586;2022-07-23T03:52:04;15.13;;;9.55;;
47866;SDS011;33628;50.806;11.586;2022-07-23T03:54:30;11.95;;;8.43;;
47866;SDS011;33628;50.806;11.586;2022-07-23T03:56:58;9.60;;;8.60;;
47866;SDS011;33628;50.806;11.586;2022-07-23T03:59:24;15.43;;;9.02;;
47866;SDS011;33628;50.806;11.586;2022-07-23T04:01:51;12.30;;;8.75;;
47866;SDS011;33628;50.806;11.586;2022-07-23T04:04:17;18.40;;;8.38;;
47866;SDS011;33628;50.806;11.586;2022-07-23T04:06:44;13.02;;;8.63;;
47866;SDS011;33628;50.806;11.586;2022-07-23T04:09:10;16.65;;;8.63;;
47866;SDS011;33628;50.806;11.586;2022-07-23T04:11:37;11.18;;;8.40;;
47866;SDS011;33628;50.806;11.586;2022-07-23T04:14:05;17.00;;;8.80;;
47866;SDS011;33628;50.806;11.586;2022-07-23T04:16:31;12.32;;;8.07;;
47866;SDS011;33628;50.806;11.586;2022-07-23T04:18:57;10.80;;;8.07;;
47866;SDS011;33628;50.806;11.586;2022-07-23T04:21:26;12.95;;;8.15;;
47866;SDS011;33628;50.806;11.586;2022-07-23T04:23:54;12.38;;;8.48;;
47866;SDS011;33628;50.806;11.586;2022-07-23T04:26:20;11.82;;;8.77;;
47866;SDS011;33628;50.806;11.586;2022-07-23T04:28:47;14.45;;;8.95;;
47866;SDS011;33628;50.806;11.586;2022-07-23T04:31:15;15.20;;;9.20;;
47866;SDS011;33628;50.806;11.586;2022-07-23T04:33:42;12.73;;;8.57;;
47866;SDS011;33628;50.806;11.586;2022-07-23T04:36:09;12.05;;;8.50;;
47866;SDS011;33628;50.806;11.586;2022-07-23T04:38:35;14.50;;;8.85;;
47866;SDS011;33628;50.806;11.586;2022-07-23T04:41:03;11.85;;;8.27;;
47866;SDS011;33628;50.806;11.586;2022-07-23T04:43:30;13.38;;;7.88;;
47866;SDS011;33628;50.806;11.586;2022-07-23T04:45:57;14.00;;;7.95;;
47866;SDS011;33628;50.806;11.586;2022-07-23T04:48:25;11.68;;;7.38;;
47866;SDS011;33628;50.806;11.586;2022-07-23T04:50:59;8.32;;;7.15;;
47866;SDS011;33628;50.806;11.586;2022-07-23T04:53:28;11.50;;;7.45;;
47866;SDS011;33628;50.806;11.586;2022-07-23T04:55:58;9.82;;;7.38;;
47866;SDS011;33628;50.806;11.586;2022-07-23T04:58:24;9.35;;;6.70;;
47866;SDS011;33628;50.806;11.586;2022-07-23T05:00:51;10.85;;;6.55;;
47866;SDS011;33628;50.806;11.586;2022-07-23T05:03:17;9.82;;;6.70;;
47866;SDS011;33628;50.806;11.586;2022-07-23T05:05:47;10.73;;;6.70;;
47866;SDS011;33628;50.806;11.586;2022-07-23T05:08:16;11.45;;;7.63;;
47866;SDS011;33628;50.806;11.586;2022-07-23T05:10:46;14.20;;;7.03;;
47866;SDS011;33628;50.806;11.586;2022-07-23T05:13:14;9.07;;;6.68;;
47866;SDS011;33628;50.806;11.586;2022-07-23T05:15:41;11.38;;;6.50;;
47866;SDS011;33628;50.806;11.586;2022-07-23T05:18:08;12.85;;;7.03;;
47866;SDS011;33628;50.806;11.586;2022-07-23T05:20:35;11.40;;;7.07;;
47866;SDS011;33628;50.806;11.586;2022-07-23T05:23:03;11.05;;;7.15;;
47866;SDS011;33628;50.806;11.586;2022-07-23T05:25:30;11.15;;;6.30;;
47866;SDS011;33628;50.806;11.586;2022-07-23T05:27:56;11.30;;;6.70;;
47866;SDS011;33628;50.806;11.586;2022-07-23T05:30:23;9.88;;;6.47;;
47866;SDS011;33628;50.806;11.586;2022-07-23T05:32:54;9.27;;;5.88;;
47866;SDS011;33628;50.806;11.586;2022-07-23T05:35:21;12.63;;;7.03;;
47866;SDS011;33628;50.806;11.586;2022-07-23T05:38:04;11.55;;;6.60;;
47866;SDS011;33628;50.806;11.586;2022-07-23T05:40:31;11.95;;;7.47;;
47866;SDS011;33628;50.806;11.586;2022-07-23T05:42:58;10.10;;;6.97;;
47866;SDS011;33628;50.806;11.586;2022-07-23T05:45:24;14.85;;;7.57;;
47866;SDS011;33628;50.806;11.586;2022-07-23T05:47:51;9.75;;;7.03;;
47866;SDS011;33628;50.806;11.586;2022-07-23T05:50:26;10.95;;;6.82;;
47866;SDS011;33628;50.806;11.586;2022-07-23T05:52:59;9.32;;;7.03;;
47866;SDS011;33628;50.806;11.586;2022-07-23T05:55:48;10.90;;;6.93;;
47866;SDS011;33628;50.806;11.586;2022-07-23T05:58:14;9.32;;;7.20;;
47866;SDS011;33628;50.806;11.586;2022-07-23T06:00:41;12.18;;;7.40;;
47866;SDS011;33628;50.806;11.586;2022-07-23T06:03:07;9.05;;;7.57;;
47866;SDS011;33628;50.806;11.586;2022-07-23T06:05:34;13.77;;;8.07;;
47866;SDS011;33628;50.806;11.586;2022-07-23T06:08:00;11.32;;;8.27;;
47866;SDS011;33628;50.806;11.586;2022-07-23T06:10:30;9.90;;;8.55;;
47866;SDS011;33628;50.806;11.586;2022-07-23T06:12:58;12.13;;;8.50;;
47866;SDS011;33628;50.806;11.586;2022-07-23T06:15:24;14.18;;;8.40;;
47866;SDS011;33628;50.806;11.586;2022-07-23T06:17:51;11.65;;;8.68;;
47866;SDS011;33628;50.806;11.586;2022-07-23T06:20:18;11.32;;;8.38;;
47866;SDS011;33628;50.806;11.586;2022-07-23T06:22:44;10.40;;;8.55;;
47866;SDS011;33628;50.806;11.586;2022-07-23T06:25:10;15.70;;;7.93;;
47866;SDS011;33628;50.806;11.586;2022-07-23T06:27:37;14.25;;;8.15;;
47866;SDS011;33628;50.806;11.586;2022-07-23T06:30:06;10.75;;;7.35;;
47866;SDS011;33628;50.806;11.586;2022-07-23T06:32:33;10.93;;;7.50;;
47866;SDS011;33628;50.806;11.586;2022-07-23T06:35:00;13.65;;;7.70;;
47866;SDS011;33628;50.806;11.586;2022-07-23T06:37:26;10.68;;;7.13;;
47866;SDS011;33628;50.806;11.586;2022-07-23T06:39:52;8.70;;;6.20;;
47866;SDS011;33628;50.806;11.586;2022-07-23T06:42:18;9.85;;;6.57;;
47866;SDS011;33628;50.806;11.586;2022-07-23T06:44:48;8.45;;;6.55;;
47866;SDS011;33628;50.806;11.586;2022-07-23T06:47:17;10.05;;;6.45;;
47866;SDS011;33628;50.806;11.586;2022-07-23T06:49:43;11.52;;;6.97;;
47866;SDS011;33628;50.806;11.586;2022-07-23T06:52:09;8.48;;;6.50;;
47866;SDS011;33628;50.806;11.586;2022-07-23T06:54:36;7.40;;;6.22;;
47866;SDS011;33628;50.806;11.586;2022-07-23T06:57:02;9.38;;;6.90;;
47866;SDS011;33628;50.806;11.586;2022-07-23T06:59:28;8.40;;;6.47;;
47866;SDS011;33628;50.806;11.586;2022-07-23T07:01:54;11.68;;;7.40;;
47866;SDS011;33628;50.806;11.586;2022-07-23T07:04:23;13.43;;;6.78;;
47866;SDS011;33628;50.806;11.586;2022-07-23T07:06:49;7.50;;;6.72;;
47866;SDS011;33628;50.806;11.586;2022-07-23T07:09:15;11.80;;;6.50;;
47866;SDS011;33628;50.806;11.586;2022-07-23T07:11:42;10.20;;;6.57;;
47866;SDS011;33628;50.806;11.586;2022-07-23T07:14:08;8.73;;;7.10;;
47866;SDS011;33628;50.806;11.586;2022-07-23T07:16:34;9.38;;;6.53;;
47866;SDS011;33628;50.806;11.586;2022-07-23T07:19:00;7.78;;;6.95;;
47866;SDS011;33628;50.806;11.586;2022-07-23T07:21:28;7.97;;;5.70;;
47866;SDS011;33628;50.806;11.586;2022-07-23T07:23:54;7.50;;;6.10;;
47866;SDS011;33628;50.806;11.586;2022-07-23T07:26:20;7.18;;;5.90;;
47866;SDS011;33628;50.806;11.586;2022-07-23T07:28:46;8.63;;;5.45;;
47866;SDS011;33628;50.806;11.586;2022-07-23T07:31:13;7.35;;;5.40;;
47866;SDS011;33628;50.806;11.586;2022-07-23T07:33:39;7.45;;;5.50;;
47866;SDS011;33628;50.806;11.586;2022-07-23T07:36:05;8.02;;;4.95;;
47866;SDS011;33628;50.806;11.586;2022-07-23T07:38:33;7.28;;;5.68;;
47866;SDS011;33628;50.806;11.586;2022-07-23T07:40:59;9.60;;;5.47;;
47866;SDS011;33628;50.806;11.586;2022-07-23T07:43:26;9.25;;;6.25;;
47866;SDS011;33628;50.806;11.586;2022-07-23T07:45:52;6.00;;;4.78;;
47866;SDS011;33628;50.806;11.586;2022-07-23T07:48:19;8.43;;;5.15;;
47866;SDS011;33628;50.806;11.586;2022-07-23T07:50:45;6.35;;;5.10;;
47866;SDS011;33628;50.806;11.586;2022-07-23T07:53:11;6.60;;;5.43;;
47866;SDS011;33628;50.806;11.586;2022-07-23T07:55:39;7.85;;;4.88;;
47866;SDS011;33628;50.806;11.586;2022-07-23T07:58:05;5.95;;;5.13;;
47866;SDS011;33628;50.806;11.586;2022-07-23T08:00:31;5.97;;;4.88;;
47866;SDS011;33628;50.806;11.586;2022-07-23T08:02:58;10.02;;;5.28;;
47866;SDS011;33628;50.806;11.586;2022-07-23T08:05:25;11.18;;;5.53;;
47866;SDS011;33628;50.806;11.586;2022-07-23T08:07:52;6.70;;;5.00;;
47866;SDS011;33628;50.806;11.586;2022-07-23T08:10:19;6.10;;;4.65;;
47866;SDS011;33628;50.806;11.586;2022-07-23T08:12:48;7.93;;;5.35;;
47866;SDS011;33628;50.806;11.586;2022-07-23T08:15:16;5.82;;;5.07;;
47866;SDS011;33628;50.806;11.586;2022-07-23T08:17:44;5.72;;;4.40;;
47866;SDS011;33628;50.806;11.586;2022-07-23T08:20:12;7.47;;;5.43;;
47866;SDS011;33628;50.806;11.586;2022-07-23T08:22:42;5.63;;;4.55;;
47866;SDS011;33628;50.806;11.586;2022-07-23T08:25:10;6.68;;;4.35;;
47866;SDS011;33628;50.806;11.586;2022-07-23T08:27:37;6.53;;;4.60;;
47866;SDS011;33628;50.806;11.586;2022-07-23T08:30:05;7.60;;;5.03;;
47866;SDS011;33628;50.806;11.586;2022-07-23T08:32:32;7.65;;;4.95;;
47866;SDS011;33628;50.806;11.586;2022-07-23T08:34:59;6.30;;;4.78;;
47866;SDS011;33628;50.806;11.586;2022-07-23T08:37:28;7.05;;;5.63;;
47866;SDS011;33628;50.806;11.586;2022-07-23T08:39:54;8.85;;;5.10;;
47866;SDS011;33628;50.806;11.586;2022-07-23T08:42:21;5.55;;;4.85;;
47866;SDS011;33628;50.806;11.586;2022-07-23T08:44:47;6.05;;;4.60;;
47866;SDS011;33628;50.806;11.586;2022-07-23T08:47:15;5.95;;;4.70;;
47866;SDS011;33628;50.806;11.586;2022-07-23T08:49:41;5.63;;;4.35;;
47866;SDS011;33628;50.806;11.586;2022-07-23T08:52:08;6.88;;;4.88;;
47866;SDS011;33628;50.806;11.586;2022-07-23T08:54:34;5.65;;;4.68;;
47866;SDS011;33628;50.806;11.586;2022-07-23T08:57:01;5.13;;;4.60;;
47866;SDS011;33628;50.806;11.586;2022-07-23T08:59:27;9.50;;;5.40;;
47866;SDS011;33628;50.806;11.586;2022-07-23T09:01:54;8.77;;;5.05;;
47866;SDS011;33628;50.806;11.586;2022-07-23T09:04:22;5.78;;;4.53;;
47866;SDS011;33628;50.806;11.586;2022-07-23T09:06:48;6.70;;;5.30;;
47866;SDS011;33628;50.806;11.586;2022-07-23T09:09:17;6.70;;;5.57;;
47866;SDS011;33628;50.806;11.586;2022-07-23T09:11:45;7.22;;;5.32;;
47866;SDS011;33628;50.806;11.586;2022-07-23T09:14:12;9.43;;;6.35;;
47866;SDS011;33628;50.806;11.586;2022-07-23T09:16:38;7.60;;;5.60;;
47866;SDS011;33628;50.806;11.586;2022-07-23T09:19:05;7.53;;;5.40;;
47866;SDS011;33628;50.806;11.586;2022-07-23T09:21:34;6.80;;;5.47;;
47866;SDS011;33628;50.806;11.586;2022-07-23T09:24:01;8.43;;;5.82;;
47866;SDS011;33628;50.806;11.586;2022-07-23T09:26:30;7.25;;;5.78;;
47866;SDS011;33628;50.806;11.586;2022-07-23T09:28:58;8.55;;;6.53;;
47866;SDS011;33628;50.806;11.586;2022-07-23T09:31:33;10.80;;;5.88;;
47866;SDS011;33628;50.806;11.586;2022-07-23T09:34:07;13.13;;;6.82;;
47866;SDS011;33628;50.806;11.586;2022-07-23T09:36:36;7.53;;;5.82;;
47866;SDS011;33628;50.806;11.586;2022-07-23T09:39:03;9.05;;;5.93;;
47866;SDS011;33628;50.806;11.586;2022-07-23T09:41:34;8.88;;;6.65;;
47866;SDS011;33628;50.806;11.586;2022-07-23T09:44:06;7.63;;;6.13;;
47866;SDS011;33628;50.806;11.586;2022-07-23T09:46:33;6.22;;;5.60;;
47866;SDS011;33628;50.806;11.586;2022-07-23T09:48:59;7.88;;;6.05;;
47866;SDS011;33628;50.806;11.586;2022-07-23T09:51:41;9.18;;;5.78;;
47866;SDS011;33628;50.806;11.586;2022-07-23T09:54:19;7.40;;;6.35;;
47866;SDS011;33628;50.806;11.586;2022-07-23T09:56:51;8.00;;;6.35;;
47866;SDS011;33628;50.806;11.586;2022-07-23T09:59:18;8.32;;;6.85;;
47866;SDS011;33628;50.806;11.586;2022-07-23T10:01:44;9.27;;;7.25;;
47866;SDS011;33628;50.806;11.586;2022-07-23T10:04:11;10.27;;;8.13;;
47866;SDS011;33628;50.806;11.586;2022-07-23T10:06:59;10.25;;;6.65;;
47866;SDS011;33628;50.806;11.586;2022-07-23T10:09:44;9.52;;;5.95;;
47866;SDS011;33628;50.806;11.586;2022-07-23T10:12:45;6.60;;;5.70;;
47866;SDS011;33628;50.806;11.586;2022-07-23T10:15:27;8.27;;;6.25;;
47866;SDS011;33628;50.806;11.586;2022-07-23T10:17:54;9.75;;;6.18;;
47866;SDS011;33628;50.806;11.586;2022-07-23T10:20:21;7.47;;;6.63;;
47866;SDS011;33628;50.806;11.586;2022-07-23T10:22:50;7.80;;;5.72;;
47866;SDS011;33628;50.806;11.586;2022-07-23T10:25:21;7.85;;;6.07;;
47866;SDS011;33628;50.806;11.586;2022-07-23T10:27:53;10.02;;;6.70;;
47866;SDS011;33628;50.806;11.586;2022-07-23T10:30:26;10.93;;;6.10;;
47866;SDS011;33628;50.806;11.586;2022-07-23T10:32:59;11.52;;;6.63;;
47866;SDS011;33628;50.806;11.586;2022-07-23T10:35:31;9.73;;;7.55;;
47866;SDS011;33628;50.806;11.586;2022-07-23T10:38:03;8.07;;;7.05;;
47866;SDS011;33628;50.806;11.586;2022-07-23T10:40:33;11.50;;;7.85;;
47866;SDS011;33628;50.806;11.586;2022-07-23T10:43:00;9.20;;;7.47;;
47866;SDS011;33628;50.806;11.586;2022-07-23T10:45:28;11.25;;;8.50;;
47866;SDS011;33628;50.806;11.586;2022-07-23T10:47:55;10.00;;;7.47;;
47866;SDS011;33628;50.806;11.586;2022-07-23T10:50:23;10.15;;;7.32;;
47866;SDS011;33628;50.806;11.586;2022-07-23T10:53:10;10.27;;;7.25;;
47866;SDS011;33628;50.806;11.586;2022-07-23T10:55:45;8.05;;;7.25;;
47866;SDS011;33628;50.806;11.586;2022-07-23T10:58:12;9.63;;;8.50;;
47866;SDS011;33628;50.806;11.586;2022-07-23T11:00:46;8.10;;;6.75;;
47866;SDS011;33628;50.806;11.586;2022-07-23T11:03:27;8.90;;;6.82;;
47866;SDS011;33628;50.806;11.586;2022-07-23T11:05:55;7.30;;;6.55;;
47866;SDS011;33628;50.806;11.586;2022-07-23T11:08:22;8.15;;;6.22;;
47866;SDS011;33628;50.806;11.586;2022-07-23T11:10:50;7.72;;;6.78;;
47866;SDS011;33628;50.806;11.586;2022-07-23T11:13:27;7.78;;;6.40;;
47866;SDS011;33628;50.806;11.586;2022-07-23T11:16:04;9.73;;;6.97;;
47866;SDS011;33628;50.806;11.586;2022-07-23T11:24:19;7.60;;;6.90;;
47866;SDS011;33628;50.806;11.586;2022-07-23T11:26:50;7.20;;;6.50;;
47866;SDS011;33628;50.806;11.586;2022-07-23T11:29:41;8.55;;;6.95;;
47866;SDS011;33628;50.806;11.586;2022-07-23T11:32:30;7.65;;;6.93;;
47866;SDS011;33628;50.806;11.586;2022-07-23T11:35:02;7.10;;;6.40;;
47866;SDS011;33628;50.806;11.586;2022-07-23T11:37:31;8.65;;;7.22;;
47866;SDS011;33628;50.806;11.586;2022-07-23T11:40:03;9.07;;;7.38;;
47866;SDS011;33628;50.806;11.586;2022-07-23T11:42:32;8.55;;;7.63;;
47866;SDS011;33628;50.806;11.586;2022-07-23T11:44:58;8.15;;;7.43;;
47866;SDS011;33628;50.806;11.586;2022-07-23T11:47:25;8.85;;;7.65;;
47866;SDS011;33628;50.806;11.586;2022-07-23T11:49:52;8.25;;;7.35;;
47866;SDS011;33628;50.806;11.586;2022-07-23T11:52:19;9.43;;;7.90;;
47866;SDS011;33628;50.806;11.586;2022-07-23T11:54:46;10.48;;;8.50;;
47866;SDS011;33628;50.806;11.586;2022-07-23T11:57:15;8.07;;;7.22;;
47866;SDS011;33628;50.806;11.586;2022-07-23T11:59:42;9.60;;;8.52;;
47866;SDS011;33628;50.806;11.586;2022-07-23T12:02:08;10.48;;;8.45;;
47866;SDS011;33628;50.806;11.586;2022-07-23T12:04:37;10.13;;;8.80;;
47866;SDS011;33628;50.806;11.586;2022-07-23T12:07:05;10.15;;;9.13;;
47866;SDS011;33628;50.806;11.586;2022-07-23T12:09:48;12.15;;;9.60;;
47866;SDS011;33628;50.806;11.586;2022-07-23T12:12:16;9.38;;;8.15;;
47866;SDS011;33628;50.806;11.586;2022-07-23T12:14:47;11.15;;;9.35;;
47866;SDS011;33628;50.806;11.586;2022-07-23T12:17:14;9.25;;;8.35;;
47866;SDS011;33628;50.806;11.586;2022-07-23T12:19:40;13.25;;;9.38;;
47866;SDS011;33628;50.806;11.586;2022-07-23T12:22:07;14.93;;;8.70;;
47866;SDS011;33628;50.806;11.586;2022-07-23T12:27:22;9.35;;;8.25;;
47866;SDS011;33628;50.806;11.586;2022-07-23T12:29:49;8.88;;;8.05;;
47866;SDS011;33628;50.806;11.586;2022-07-23T12:32:19;10.50;;;8.43;;
47866;SDS011;33628;50.806;11.586;2022-07-23T12:34:47;10.98;;;8.88;;
47866;SDS011;33628;50.806;11.586;2022-07-23T12:37:25;10.52;;;9.43;;
47866;SDS011;33628;50.806;11.586;2022-07-23T12:39:52;10.52;;;9.32;;
47866;SDS011;33628;50.806;11.586;2022-07-23T12:42:18;11.35;;;10.25;;
47866;SDS011;33628;50.806;11.586;2022-07-23T12:53:02;13.13;;;11.73;;
47866;SDS011;33628;50.806;11.586;2022-07-23T12:55:32;14.23;;;11.45;;
47866;SDS011;33628;50.806;11.586;2022-07-23T12:58:02;13.25;;;11.63;;
47866;SDS011;33628;50.806;11.586;2022-07-23T13:00:31;12.88;;;11.50;;
47866;SDS011;33628;50.806;11.586;2022-07-23T13:02:58;13.30;;;11.40;;
47866;SDS011;33628;50.806;11.586;2022-07-23T13:05:24;11.93;;;10.35;;
47866;SDS011;33628;50.806;11.586;2022-07-23T13:07:50;12.80;;;10.07;;
47866;SDS011;33628;50.806;11.586;2022-07-23T13:10:16;12.82;;;9.68;;
47866;SDS011;33628;50.806;11.586;2022-07-23T13:12:42;9.85;;;8.95;;
47866;SDS011;33628;50.806;11.586;2022-07-23T13:15:09;9.35;;;8.45;;
47866;SDS011;33628;50.806;11.586;2022-07-23T13:17:37;10.05;;;9.10;;
47866;SDS011;33628;50.806;11.586;2022-07-23T13:20:03;13.65;;;8.35;;
47866;SDS011;33628;50.806;11.586;2022-07-23T13:22:30;11.00;;;8.93;;
47866;SDS011;33628;50.806;11.586;2022-07-23T13:24:57;10.23;;;8.43;;
47866;SDS011;33628;50.806;11.586;2022-07-23T13:27:23;9.82;;;8.88;;
47866;SDS011;33628;50.806;11.586;2022-07-23T13:29:49;9.63;;;8.70;;
47866;SDS011;33628;50.806;11.586;2022-07-23T13:32:16;10.23;;;8.27;;
47866;SDS011;33628;50.806;11.586;2022-07-23T13:34:43;8.02;;;7.22;;
47866;SDS011;33628;50.806;11.586;2022-07-23T13:37:09;8.20;;;7.05;;
47866;SDS011;33628;50.806;11.586;2022-07-23T13:39:35;10.60;;;7.03;;
47866;SDS011;33628;50.806;11.586;2022-07-23T13:42:02;7.72;;;6.93;;
47866;SDS011;33628;50.806;11.586;2022-07-23T13:44:28;7.68;;;6.72;;
47866;SDS011;33628;50.806;11.586;2022-07-23T13:46:54;7.22;;;6.53;;
47866;SDS011;33628;50.806;11.586;2022-07-23T13:49:20;7.13;;;6.00;;
47866;SDS011;33628;50.806;11.586;2022-07-23T13:51:48;7.95;;;6.60;;
47866;SDS011;33628;50.806;11.586;2022-07-23T13:54:14;7.03;;;6.30;;
47866;SDS011;33628;50.806;11.586;2022-07-23T13:56:41;7.78;;;6.97;;
47866;SDS011;33628;50.806;11.586;2022-07-23T13:59:07;6.90;;;6.22;;
47866;SDS011;33628;50.806;11.586;2022-07-23T14:01:34;8.52;;;6.88;;
47866;SDS011;33628;50.806;11.586;2022-07-23T14:04:00;6.57;;;5.97;;
47866;SDS011;33628;50.806;11.586;2022-07-23T14:06:26;9.10;;;6.28;;
47866;SDS011;33628;50.806;11.586;2022-07-23T14:08:54;6.88;;;5.75;;
47866;SDS011;33628;50.806;11.586;2022-07-23T14:11:20;6.22;;;5.55;;
47866;SDS011;33628;50.806;11.586;2022-07-23T14:13:46;5.78;;;5.18;;
47866;SDS011;33628;50.806;11.586;2022-07-23T14:16:12;6.20;;;5.60;;
47866;SDS011;33628;50.806;11.586;2022-07-23T14:18:38;9.10;;;5.57;;
47866;SDS011;33628;50.806;11.586;2022-07-23T14:21:05;6.30;;;5.60;;
47866;SDS011;33628;50.806;11.586;2022-07-23T14:23:31;6.80;;;5.50;;
47866;SDS011;33628;50.806;11.586;2022-07-23T14:25:58;7.57;;;5.25;;
47866;SDS011;33628;50.806;11.586;2022-07-23T14:28:24;6.53;;;5.75;;
47866;SDS011;33628;50.806;11.586;2022-07-23T14:30:51;7.72;;;5.30;;
47866;SDS011;33628;50.806;11.586;2022-07-23T14:33:17;5.63;;;4.75;;
47866;SDS011;33628;50.806;11.586;2022-07-23T14:35:43;8.23;;;4.90;;
47866;SDS011;33628;50.806;11.586;2022-07-23T14:38:09;5.97;;;4.63;;
47866;SDS011;33628;50.806;11.586;2022-07-23T14:40:35;7.18;;;4.70;;
47866;SDS011;33628;50.806;11.586;2022-07-23T14:43:03;5.85;;;4.60;;
47866;SDS011;33628;50.806;11.586;2022-07-23T14:45:29;4.90;;;4.35;;
47866;SDS011;33628;50.806;11.586;2022-07-23T14:47:55;5.43;;;4.47;;
47866;SDS011;33628;50.806;11.586;2022-07-23T14:50:21;6.85;;;5.22;;